sensor_id;sensor_type;location;lat;lon;timestamp;P1;durP1;ratioP1;P2;durP2;ratioP2
22812;SDS011;11573;51.334;3.244;2022-11-25T00:01:02;14.65;;;2.90;;
22812;SDS011;11573;51.334;3.244;2022-11-25T00:03:31;12.77;;;3.45;;
22812;SDS011;11573;51.334;3.244;2022-11-25T00:06:06;11.40;;;2.67;;
22812;SDS011;11573;51.334;3.244;2022-11-25T00:08:56;13.07;;;2.40;;
22812;SDS011;11573;51.334;3.244;2022-11-25T00:11:25;7.72;;;2.33;;
22812;SDS011;11573;51.334;3.244;2022-11-25T00:13:53;12.07;;;2.50;;
22812;SDS011;11573;51.334;3.244;2022-11-25T00:16:21;8.13;;;2.38;;
22812;SDS011;11573;51.334;3.244;2022-11-25T00:18:50;15.50;;;3.58;;
22812;SDS011;11573;51.334;3.244;2022-11-25T00:21:22;11.23;;;2.35;;
22812;SDS011;11573;51.334;3.244;2022-11-25T00:23:54;11.55;;;2.47;;
22812;SDS011;11573;51.334;3.244;2022-11-25T00:26:23;9.18;;;2.30;;
22812;SDS011;11573;51.334;3.244;2022-11-25T00:28:51;7.60;;;2.30;;
22812;SDS011;11573;51.334;3.244;2022-11-25T00:31:19;12.13;;;3.55;;
22812;SDS011;11573;51.334;3.244;2022-11-25T00:33:48;10.88;;;2.42;;
22812;SDS011;11573;51.334;3.244;2022-11-25T00:36:17;15.15;;;2.45;;
22812;SDS011;11573;51.334;3.244;2022-11-25T00:38:56;11.50;;;2.30;;
22812;SDS011;11573;51.334;3.244;2022-11-25T00:41:25;16.23;;;2.92;;
22812;SDS011;11573;51.334;3.244;2022-11-25T00:44:12;9.77;;;2.30;;
22812;SDS011;11573;51.334;3.244;2022-11-25T00:47:03;10.85;;;2.50;;
22812;SDS011;11573;51.334;3.244;2022-11-25T00:49:51;10.88;;;2.42;;
22812;SDS011;11573;51.334;3.244;2022-11-25T00:52:24;8.63;;;2.35;;
22812;SDS011;11573;51.334;3.244;2022-11-25T00:54:52;11.30;;;2.33;;
22812;SDS011;11573;51.334;3.244;2022-11-25T00:57:20;10.55;;;1.70;;
22812;SDS011;11573;51.334;3.244;2022-11-25T00:59:48;8.65;;;2.00;;
22812;SDS011;11573;51.334;3.244;2022-11-25T01:02:16;8.98;;;2.20;;
22812;SDS011;11573;51.334;3.244;2022-11-25T01:04:44;5.80;;;1.85;;
22812;SDS011;11573;51.334;3.244;2022-11-25T01:07:14;8.73;;;2.17;;
22812;SDS011;11573;51.334;3.244;2022-11-25T01:09:41;4.82;;;2.03;;
22812;SDS011;11573;51.334;3.244;2022-11-25T01:12:08;8.23;;;1.90;;
22812;SDS011;11573;51.334;3.244;2022-11-25T01:14:35;10.43;;;1.90;;
22812;SDS011;11573;51.334;3.244;2022-11-25T01:17:03;6.60;;;1.88;;
22812;SDS011;11573;51.334;3.244;2022-11-25T01:19:31;6.80;;;1.92;;
22812;SDS011;11573;51.334;3.244;2022-11-25T01:21:58;7.97;;;1.92;;
22812;SDS011;11573;51.334;3.244;2022-11-25T01:24:25;8.43;;;2.00;;
22812;SDS011;11573;51.334;3.244;2022-11-25T01:26:52;7.20;;;1.60;;
22812;SDS011;11573;51.334;3.244;2022-11-25T01:29:20;8.38;;;1.65;;
22812;SDS011;11573;51.334;3.244;2022-11-25T01:31:48;4.80;;;1.45;;
22812;SDS011;11573;51.334;3.244;2022-11-25T01:34:19;5.65;;;1.55;;
22812;SDS011;11573;51.334;3.244;2022-11-25T01:36:48;4.35;;;1.25;;
22812;SDS011;11573;51.334;3.244;2022-11-25T01:39:19;6.05;;;1.67;;
22812;SDS011;11573;51.334;3.244;2022-11-25T01:41:55;10.23;;;2.25;;
22812;SDS011;11573;51.334;3.244;2022-11-25T01:44:25;7.70;;;2.00;;
22812;SDS011;11573;51.334;3.244;2022-11-25T01:54:25;6.88;;;1.70;;
22812;SDS011;11573;51.334;3.244;2022-11-25T01:57:02;5.25;;;1.70;;
22812;SDS011;11573;51.334;3.244;2022-11-25T01:59:33;3.83;;;1.40;;
22812;SDS011;11573;51.334;3.244;2022-11-25T02:02:04;9.65;;;1.80;;
22812;SDS011;11573;51.334;3.244;2022-11-25T02:04:32;6.57;;;1.35;;
22812;SDS011;11573;51.334;3.244;2022-11-25T02:07:05;8.48;;;1.75;;
22812;SDS011;11573;51.334;3.244;2022-11-25T02:09:36;8.73;;;1.75;;
22812;SDS011;11573;51.334;3.244;2022-11-25T02:12:07;4.32;;;1.60;;
22812;SDS011;11573;51.334;3.244;2022-11-25T02:14:35;6.68;;;1.85;;
22812;SDS011;11573;51.334;3.244;2022-11-25T02:17:02;8.75;;;1.98;;
22812;SDS011;11573;51.334;3.244;2022-11-25T02:22:31;6.20;;;1.65;;
22812;SDS011;11573;51.334;3.244;2022-11-25T02:25:19;3.75;;;1.73;;
22812;SDS011;11573;51.334;3.244;2022-11-25T02:27:59;4.28;;;1.45;;
22812;SDS011;11573;51.334;3.244;2022-11-25T02:30:36;4.70;;;1.55;;
22812;SDS011;11573;51.334;3.244;2022-11-25T02:33:04;6.30;;;1.63;;
22812;SDS011;11573;51.334;3.244;2022-11-25T02:38:02;5.07;;;2.08;;
22812;SDS011;11573;51.334;3.244;2022-11-25T02:43:24;7.90;;;1.70;;
22812;SDS011;11573;51.334;3.244;2022-11-25T02:48:27;12.00;;;1.73;;
22812;SDS011;11573;51.334;3.244;2022-11-25T02:51:17;10.30;;;2.20;;
22812;SDS011;11573;51.334;3.244;2022-11-25T02:53:46;7.78;;;1.90;;
22812;SDS011;11573;51.334;3.244;2022-11-25T02:56:16;9.45;;;2.03;;
22812;SDS011;11573;51.334;3.244;2022-11-25T02:58:44;9.75;;;2.13;;
22812;SDS011;11573;51.334;3.244;2022-11-25T03:01:12;4.70;;;1.60;;
22812;SDS011;11573;51.334;3.244;2022-11-25T03:03:39;8.68;;;1.98;;
22812;SDS011;11573;51.334;3.244;2022-11-25T03:06:06;6.85;;;1.98;;
22812;SDS011;11573;51.334;3.244;2022-11-25T03:08:33;6.28;;;1.92;;
22812;SDS011;11573;51.334;3.244;2022-11-25T03:11:04;4.35;;;1.90;;
22812;SDS011;11573;51.334;3.244;2022-11-25T03:13:31;3.83;;;1.70;;
22812;SDS011;11573;51.334;3.244;2022-11-25T03:15:58;8.82;;;2.00;;
22812;SDS011;11573;51.334;3.244;2022-11-25T03:18:26;8.88;;;2.22;;
22812;SDS011;11573;51.334;3.244;2022-11-25T03:20:53;8.63;;;2.47;;
22812;SDS011;11573;51.334;3.244;2022-11-25T03:23:23;9.38;;;2.17;;
22812;SDS011;11573;51.334;3.244;2022-11-25T03:25:52;7.00;;;2.10;;
22812;SDS011;11573;51.334;3.244;2022-11-25T03:28:19;6.05;;;2.05;;
22812;SDS011;11573;51.334;3.244;2022-11-25T03:30:46;9.77;;;1.60;;
22812;SDS011;11573;51.334;3.244;2022-11-25T03:33:13;3.85;;;1.48;;
22812;SDS011;11573;51.334;3.244;2022-11-25T03:35:40;5.78;;;1.83;;
22812;SDS011;11573;51.334;3.244;2022-11-25T03:38:07;5.47;;;1.63;;
22812;SDS011;11573;51.334;3.244;2022-11-25T03:40:35;10.43;;;1.70;;
22812;SDS011;11573;51.334;3.244;2022-11-25T03:43:03;8.80;;;1.50;;
22812;SDS011;11573;51.334;3.244;2022-11-25T03:45:30;5.78;;;1.30;;
22812;SDS011;11573;51.334;3.244;2022-11-25T03:48:00;5.53;;;1.27;;
22812;SDS011;11573;51.334;3.244;2022-11-25T03:50:27;7.20;;;1.60;;
22812;SDS011;11573;51.334;3.244;2022-11-25T03:52:54;5.40;;;1.38;;
22812;SDS011;11573;51.334;3.244;2022-11-25T03:55:21;6.40;;;1.27;;
22812;SDS011;11573;51.334;3.244;2022-11-25T03:57:48;9.18;;;1.35;;
22812;SDS011;11573;51.334;3.244;2022-11-25T04:00:16;7.28;;;1.20;;
22812;SDS011;11573;51.334;3.244;2022-11-25T04:02:48;6.22;;;1.35;;
22812;SDS011;11573;51.334;3.244;2022-11-25T04:05:17;9.20;;;1.60;;
22812;SDS011;11573;51.334;3.244;2022-11-25T04:07:44;5.63;;;1.30;;
22812;SDS011;11573;51.334;3.244;2022-11-25T04:10:11;8.43;;;1.58;;
22812;SDS011;11573;51.334;3.244;2022-11-25T04:12:38;10.40;;;1.80;;
22812;SDS011;11573;51.334;3.244;2022-11-25T04:15:30;6.63;;;1.80;;
22812;SDS011;11573;51.334;3.244;2022-11-25T04:17:58;8.68;;;2.35;;
22812;SDS011;11573;51.334;3.244;2022-11-25T04:20:25;8.63;;;1.70;;
22812;SDS011;11573;51.334;3.244;2022-11-25T04:22:59;10.00;;;2.28;;
22812;SDS011;11573;51.334;3.244;2022-11-25T04:25:26;11.00;;;2.03;;
22812;SDS011;11573;51.334;3.244;2022-11-25T04:27:53;7.28;;;1.80;;
22812;SDS011;11573;51.334;3.244;2022-11-25T04:30:27;8.63;;;1.70;;
22812;SDS011;11573;51.334;3.244;2022-11-25T04:32:54;6.68;;;1.70;;
22812;SDS011;11573;51.334;3.244;2022-11-25T04:35:21;10.43;;;1.70;;
22812;SDS011;11573;51.334;3.244;2022-11-25T04:37:51;5.35;;;1.45;;
22812;SDS011;11573;51.334;3.244;2022-11-25T04:40:19;8.80;;;1.45;;
22812;SDS011;11573;51.334;3.244;2022-11-25T04:42:53;5.97;;;1.50;;
22812;SDS011;11573;51.334;3.244;2022-11-25T04:45:30;9.27;;;2.75;;
22812;SDS011;11573;51.334;3.244;2022-11-25T04:48:17;6.20;;;2.20;;
22812;SDS011;11573;51.334;3.244;2022-11-25T04:50:45;9.25;;;1.77;;
22812;SDS011;11573;51.334;3.244;2022-11-25T04:53:12;7.22;;;1.70;;
22812;SDS011;11573;51.334;3.244;2022-11-25T04:55:39;5.90;;;1.70;;
22812;SDS011;11573;51.334;3.244;2022-11-25T04:58:12;7.47;;;1.60;;
22812;SDS011;11573;51.334;3.244;2022-11-25T05:00:41;3.80;;;1.17;;
22812;SDS011;11573;51.334;3.244;2022-11-25T05:03:10;5.75;;;1.45;;
22812;SDS011;11573;51.334;3.244;2022-11-25T05:05:37;5.35;;;1.20;;
22812;SDS011;11573;51.334;3.244;2022-11-25T05:08:05;4.05;;;1.45;;
22812;SDS011;11573;51.334;3.244;2022-11-25T05:10:32;7.75;;;1.45;;
22812;SDS011;11573;51.334;3.244;2022-11-25T05:12:58;5.20;;;1.77;;
22812;SDS011;11573;51.334;3.244;2022-11-25T05:15:25;4.57;;;1.15;;
22812;SDS011;11573;51.334;3.244;2022-11-25T05:17:53;6.85;;;1.25;;
22812;SDS011;11573;51.334;3.244;2022-11-25T05:20:35;5.22;;;1.60;;
22812;SDS011;11573;51.334;3.244;2022-11-25T05:23:02;4.97;;;1.30;;
22812;SDS011;11573;51.334;3.244;2022-11-25T05:25:29;7.38;;;1.52;;
22812;SDS011;11573;51.334;3.244;2022-11-25T05:28:20;7.72;;;1.63;;
22812;SDS011;11573;51.334;3.244;2022-11-25T05:30:46;6.22;;;1.33;;
22812;SDS011;11573;51.334;3.244;2022-11-25T05:33:14;7.88;;;1.73;;
22812;SDS011;11573;51.334;3.244;2022-11-25T05:35:41;8.65;;;1.85;;
22812;SDS011;11573;51.334;3.244;2022-11-25T05:38:08;8.32;;;1.90;;
22812;SDS011;11573;51.334;3.244;2022-11-25T05:40:36;4.72;;;1.42;;
22812;SDS011;11573;51.334;3.244;2022-11-25T05:43:08;7.28;;;1.25;;
22812;SDS011;11573;51.334;3.244;2022-11-25T05:45:37;6.53;;;1.70;;
22812;SDS011;11573;51.334;3.244;2022-11-25T05:48:07;10.00;;;1.88;;
22812;SDS011;11573;51.334;3.244;2022-11-25T05:50:35;8.05;;;1.60;;
22812;SDS011;11573;51.334;3.244;2022-11-25T05:53:13;6.68;;;1.67;;
22812;SDS011;11573;51.334;3.244;2022-11-25T05:55:43;3.40;;;1.55;;
22812;SDS011;11573;51.334;3.244;2022-11-25T05:58:22;8.85;;;1.67;;
22812;SDS011;11573;51.334;3.244;2022-11-25T06:00:53;9.38;;;2.20;;
22812;SDS011;11573;51.334;3.244;2022-11-25T06:03:25;9.30;;;1.83;;
22812;SDS011;11573;51.334;3.244;2022-11-25T06:05:55;7.93;;;2.00;;
22812;SDS011;11573;51.334;3.244;2022-11-25T06:08:23;9.50;;;2.25;;
22812;SDS011;11573;51.334;3.244;2022-11-25T06:10:51;12.88;;;2.50;;
22812;SDS011;11573;51.334;3.244;2022-11-25T06:13:18;8.98;;;2.33;;
22812;SDS011;11573;51.334;3.244;2022-11-25T06:15:45;10.90;;;2.45;;
22812;SDS011;11573;51.334;3.244;2022-11-25T06:18:16;6.25;;;2.40;;
22812;SDS011;11573;51.334;3.244;2022-11-25T06:20:44;8.65;;;2.58;;
22812;SDS011;11573;51.334;3.244;2022-11-25T06:23:20;9.27;;;2.30;;
22812;SDS011;11573;51.334;3.244;2022-11-25T06:25:47;12.10;;;2.70;;
22812;SDS011;11573;51.334;3.244;2022-11-25T06:28:14;10.98;;;2.58;;
22812;SDS011;11573;51.334;3.244;2022-11-25T06:30:46;5.13;;;2.38;;
22812;SDS011;11573;51.334;3.244;2022-11-25T06:33:29;7.13;;;2.25;;
22812;SDS011;11573;51.334;3.244;2022-11-25T06:36:01;10.43;;;2.05;;
22812;SDS011;11573;51.334;3.244;2022-11-25T06:38:29;12.93;;;3.63;;
22812;SDS011;11573;51.334;3.244;2022-11-25T06:41:03;9.07;;;2.38;;
22812;SDS011;11573;51.334;3.244;2022-11-25T06:43:31;10.88;;;2.85;;
22812;SDS011;11573;51.334;3.244;2022-11-25T06:46:05;6.55;;;2.03;;
22812;SDS011;11573;51.334;3.244;2022-11-25T06:48:36;8.55;;;2.25;;
22812;SDS011;11573;51.334;3.244;2022-11-25T06:51:05;9.25;;;2.53;;
22812;SDS011;11573;51.334;3.244;2022-11-25T06:53:34;7.05;;;2.08;;
22812;SDS011;11573;51.334;3.244;2022-11-25T06:56:05;9.48;;;2.72;;
22812;SDS011;11573;51.334;3.244;2022-11-25T06:58:40;11.85;;;2.78;;
22812;SDS011;11573;51.334;3.244;2022-11-25T07:01:12;9.38;;;2.50;;
22812;SDS011;11573;51.334;3.244;2022-11-25T07:03:42;8.63;;;2.55;;
22812;SDS011;11573;51.334;3.244;2022-11-25T07:06:13;14.63;;;3.30;;
22812;SDS011;11573;51.334;3.244;2022-11-25T07:08:42;14.18;;;3.88;;
22812;SDS011;11573;51.334;3.244;2022-11-25T07:11:10;10.07;;;2.90;;
22812;SDS011;11573;51.334;3.244;2022-11-25T07:13:38;10.57;;;2.63;;
22812;SDS011;11573;51.334;3.244;2022-11-25T07:16:05;13.98;;;3.05;;
22812;SDS011;11573;51.334;3.244;2022-11-25T07:18:33;11.70;;;2.90;;
22812;SDS011;11573;51.334;3.244;2022-11-25T07:21:02;17.00;;;3.55;;
22812;SDS011;11573;51.334;3.244;2022-11-25T07:23:30;14.45;;;3.22;;
22812;SDS011;11573;51.334;3.244;2022-11-25T07:26:02;15.30;;;3.53;;
22812;SDS011;11573;51.334;3.244;2022-11-25T07:28:34;16.00;;;3.28;;
22812;SDS011;11573;51.334;3.244;2022-11-25T07:31:06;12.98;;;3.38;;
22812;SDS011;11573;51.334;3.244;2022-11-25T07:33:52;17.65;;;4.30;;
22812;SDS011;11573;51.334;3.244;2022-11-25T07:36:21;14.93;;;3.25;;
22812;SDS011;11573;51.334;3.244;2022-11-25T07:38:48;15.63;;;3.53;;
22812;SDS011;11573;51.334;3.244;2022-11-25T07:41:16;12.57;;;3.53;;
22812;SDS011;11573;51.334;3.244;2022-11-25T07:43:46;11.35;;;3.08;;
22812;SDS011;11573;51.334;3.244;2022-11-25T07:48:53;12.45;;;3.45;;
22812;SDS011;11573;51.334;3.244;2022-11-25T07:51:29;12.98;;;3.20;;
22812;SDS011;11573;51.334;3.244;2022-11-25T07:53:56;13.00;;;3.17;;
22812;SDS011;11573;51.334;3.244;2022-11-25T07:56:25;10.85;;;2.88;;
22812;SDS011;11573;51.334;3.244;2022-11-25T07:58:52;10.45;;;3.30;;
22812;SDS011;11573;51.334;3.244;2022-11-25T08:01:20;13.90;;;3.75;;
22812;SDS011;11573;51.334;3.244;2022-11-25T08:03:48;22.88;;;5.72;;
22812;SDS011;11573;51.334;3.244;2022-11-25T08:06:17;15.82;;;3.45;;
22812;SDS011;11573;51.334;3.244;2022-11-25T08:08:49;16.17;;;3.45;;
22812;SDS011;11573;51.334;3.244;2022-11-25T08:11:28;7.40;;;3.05;;
22812;SDS011;11573;51.334;3.244;2022-11-25T08:13:56;11.23;;;3.33;;
22812;SDS011;11573;51.334;3.244;2022-11-25T08:16:25;13.02;;;2.70;;
22812;SDS011;11573;51.334;3.244;2022-11-25T08:18:53;10.93;;;2.88;;
22812;SDS011;11573;51.334;3.244;2022-11-25T08:21:21;16.15;;;2.80;;
22812;SDS011;11573;51.334;3.244;2022-11-25T08:23:48;8.23;;;2.40;;
22812;SDS011;11573;51.334;3.244;2022-11-25T08:26:19;12.90;;;2.90;;
22812;SDS011;11573;51.334;3.244;2022-11-25T08:28:48;12.07;;;3.10;;
22812;SDS011;11573;51.334;3.244;2022-11-25T08:31:17;11.95;;;2.95;;
22812;SDS011;11573;51.334;3.244;2022-11-25T08:33:52;13.43;;;3.30;;
22812;SDS011;11573;51.334;3.244;2022-11-25T08:36:21;6.18;;;2.53;;
22812;SDS011;11573;51.334;3.244;2022-11-25T08:38:49;12.77;;;3.17;;
22812;SDS011;11573;51.334;3.244;2022-11-25T08:41:19;6.75;;;2.58;;
22812;SDS011;11573;51.334;3.244;2022-11-25T08:43:48;9.63;;;2.78;;
22812;SDS011;11573;51.334;3.244;2022-11-25T08:46:23;7.40;;;2.60;;
22812;SDS011;11573;51.334;3.244;2022-11-25T08:48:53;10.73;;;3.42;;
22812;SDS011;11573;51.334;3.244;2022-11-25T08:51:22;9.88;;;2.38;;
22812;SDS011;11573;51.334;3.244;2022-11-25T08:53:50;14.48;;;2.95;;
22812;SDS011;11573;51.334;3.244;2022-11-25T08:56:18;7.45;;;2.65;;
22812;SDS011;11573;51.334;3.244;2022-11-25T08:58:51;9.45;;;2.35;;
22812;SDS011;11573;51.334;3.244;2022-11-25T09:01:20;10.25;;;2.58;;
22812;SDS011;11573;51.334;3.244;2022-11-25T09:03:49;9.95;;;2.40;;
22812;SDS011;11573;51.334;3.244;2022-11-25T09:06:17;8.13;;;2.38;;
22812;SDS011;11573;51.334;3.244;2022-11-25T09:08:44;9.85;;;2.33;;
22812;SDS011;11573;51.334;3.244;2022-11-25T09:11:12;11.55;;;2.75;;
22812;SDS011;11573;51.334;3.244;2022-11-25T09:13:39;8.68;;;2.70;;
22812;SDS011;11573;51.334;3.244;2022-11-25T09:16:06;11.35;;;2.75;;
22812;SDS011;11573;51.334;3.244;2022-11-25T09:18:34;15.35;;;2.95;;
22812;SDS011;11573;51.334;3.244;2022-11-25T10:42:54;19.70;;;4.47;;
22812;SDS011;11573;51.334;3.244;2022-11-25T10:45:24;14.50;;;4.13;;
22812;SDS011;11573;51.334;3.244;2022-11-25T10:48:22;22.40;;;4.07;;
22812;SDS011;11573;51.334;3.244;2022-11-25T10:51:03;17.85;;;4.03;;
22812;SDS011;11573;51.334;3.244;2022-11-25T10:56:50;27.83;;;4.93;;
22812;SDS011;11573;51.334;3.244;2022-11-25T10:59:35;21.58;;;4.05;;
22812;SDS011;11573;51.334;3.244;2022-11-25T11:07:24;15.48;;;3.88;;
22812;SDS011;11573;51.334;3.244;2022-11-25T11:12:53;18.27;;;3.63;;
22812;SDS011;11573;51.334;3.244;2022-11-25T11:15:24;20.20;;;4.35;;
22812;SDS011;11573;51.334;3.244;2022-11-25T11:17:55;24.65;;;4.38;;
22812;SDS011;11573;51.334;3.244;2022-11-25T11:20:28;22.67;;;4.45;;
22812;SDS011;11573;51.334;3.244;2022-11-25T11:25:35;17.95;;;4.07;;
22812;SDS011;11573;51.334;3.244;2022-11-25T11:28:22;17.85;;;4.20;;
22812;SDS011;11573;51.334;3.244;2022-11-25T11:31:16;18.58;;;3.83;;
22812;SDS011;11573;51.334;3.244;2022-11-25T11:42:09;23.02;;;4.50;;
22812;SDS011;11573;51.334;3.244;2022-11-25T11:50:32;28.35;;;5.55;;
22812;SDS011;11573;51.334;3.244;2022-11-25T11:58:13;25.20;;;5.40;;
22812;SDS011;11573;51.334;3.244;2022-11-25T12:04:35;27.23;;;5.00;;
22812;SDS011;11573;51.334;3.244;2022-11-25T12:09:48;22.60;;;4.38;;
22812;SDS011;11573;51.334;3.244;2022-11-25T12:12:37;20.33;;;4.35;;
22812;SDS011;11573;51.334;3.244;2022-11-25T12:15:32;30.92;;;5.35;;
22812;SDS011;11573;51.334;3.244;2022-11-25T12:18:15;18.67;;;4.90;;
22812;SDS011;11573;51.334;3.244;2022-11-25T12:24:43;27.90;;;5.07;;
22812;SDS011;11573;51.334;3.244;2022-11-25T12:27:16;30.15;;;4.90;;
22812;SDS011;11573;51.334;3.244;2022-11-25T12:29:48;23.38;;;4.45;;
22812;SDS011;11573;51.334;3.244;2022-11-25T12:35:26;25.38;;;4.28;;
22812;SDS011;11573;51.334;3.244;2022-11-25T12:40:36;29.48;;;4.70;;
22812;SDS011;11573;51.334;3.244;2022-11-25T12:45:54;24.50;;;4.07;;
22812;SDS011;11573;51.334;3.244;2022-11-25T12:48:31;22.50;;;4.88;;
22812;SDS011;11573;51.334;3.244;2022-11-25T12:51:09;19.67;;;4.28;;
22812;SDS011;11573;51.334;3.244;2022-11-25T13:08:53;23.45;;;4.90;;
22812;SDS011;11573;51.334;3.244;2022-11-25T13:11:51;23.42;;;4.47;;
22812;SDS011;11573;51.334;3.244;2022-11-25T13:17:27;21.90;;;4.07;;
22812;SDS011;11573;51.334;3.244;2022-11-25T13:25:30;18.52;;;4.45;;
22812;SDS011;11573;51.334;3.244;2022-11-25T13:27:59;27.88;;;4.55;;
22812;SDS011;11573;51.334;3.244;2022-11-25T13:40:56;20.98;;;3.90;;
22812;SDS011;11573;51.334;3.244;2022-11-25T13:43:24;23.83;;;3.97;;
22812;SDS011;11573;51.334;3.244;2022-11-25T13:45:52;25.42;;;3.65;;
22812;SDS011;11573;51.334;3.244;2022-11-25T13:48:22;18.67;;;3.88;;
22812;SDS011;11573;51.334;3.244;2022-11-25T13:53:52;22.73;;;3.97;;
22812;SDS011;11573;51.334;3.244;2022-11-25T14:01:38;21.83;;;4.13;;
22812;SDS011;11573;51.334;3.244;2022-11-25T14:04:07;17.52;;;3.95;;
22812;SDS011;11573;51.334;3.244;2022-11-25T14:12:21;18.10;;;3.35;;
22812;SDS011;11573;51.334;3.244;2022-11-25T14:15:01;21.92;;;3.83;;
22812;SDS011;11573;51.334;3.244;2022-11-25T14:26:09;18.00;;;3.15;;
22812;SDS011;11573;51.334;3.244;2022-11-25T14:29:07;18.75;;;3.45;;
22812;SDS011;11573;51.334;3.244;2022-11-25T14:31:40;25.70;;;4.03;;
22812;SDS011;11573;51.334;3.244;2022-11-25T14:34:18;28.30;;;4.22;;
22812;SDS011;11573;51.334;3.244;2022-11-25T14:37:09;21.55;;;3.70;;
22812;SDS011;11573;51.334;3.244;2022-11-25T14:39:45;19.02;;;3.70;;
22812;SDS011;11573;51.334;3.244;2022-11-25T14:42:21;19.48;;;4.05;;
22812;SDS011;11573;51.334;3.244;2022-11-25T14:44:52;29.23;;;4.00;;
22812;SDS011;11573;51.334;3.244;2022-11-25T14:47:28;22.80;;;3.13;;
22812;SDS011;11573;51.334;3.244;2022-11-25T14:50:04;18.75;;;3.60;;
22812;SDS011;11573;51.334;3.244;2022-11-25T14:52:59;20.35;;;3.53;;
22812;SDS011;11573;51.334;3.244;2022-11-25T14:55:30;21.40;;;3.85;;
22812;SDS011;11573;51.334;3.244;2022-11-25T14:57:57;19.13;;;3.65;;
22812;SDS011;11573;51.334;3.244;2022-11-25T15:00:24;21.23;;;4.05;;
22812;SDS011;11573;51.334;3.244;2022-11-25T15:02:53;24.23;;;4.13;;
22812;SDS011;11573;51.334;3.244;2022-11-25T15:05:24;24.88;;;3.60;;
22812;SDS011;11573;51.334;3.244;2022-11-25T15:07:57;31.10;;;4.40;;
22812;SDS011;11573;51.334;3.244;2022-11-25T15:10:41;22.93;;;3.60;;
22812;SDS011;11573;51.334;3.244;2022-11-25T15:18:47;21.00;;;3.85;;
22812;SDS011;11573;51.334;3.244;2022-11-25T15:21:32;19.90;;;4.07;;
22812;SDS011;11573;51.334;3.244;2022-11-25T15:24:23;23.80;;;3.22;;
22812;SDS011;11573;51.334;3.244;2022-11-25T15:26:59;27.27;;;3.35;;
22812;SDS011;11573;51.334;3.244;2022-11-25T15:29:29;14.35;;;2.92;;
22812;SDS011;11573;51.334;3.244;2022-11-25T15:32:07;20.58;;;3.45;;
22812;SDS011;11573;51.334;3.244;2022-11-25T15:34:40;24.60;;;4.53;;
22812;SDS011;11573;51.334;3.244;2022-11-25T15:37:09;27.80;;;4.40;;
22812;SDS011;11573;51.334;3.244;2022-11-25T15:39:37;33.20;;;5.03;;
22812;SDS011;11573;51.334;3.244;2022-11-25T15:44:39;24.95;;;4.15;;
22812;SDS011;11573;51.334;3.244;2022-11-25T15:47:34;21.90;;;3.60;;
22812;SDS011;11573;51.334;3.244;2022-11-25T15:50:03;18.42;;;3.85;;
22812;SDS011;11573;51.334;3.244;2022-11-25T15:52:50;27.10;;;3.30;;
22812;SDS011;11573;51.334;3.244;2022-11-25T15:58:02;23.95;;;4.22;;
22812;SDS011;11573;51.334;3.244;2022-11-25T16:03:45;23.50;;;4.22;;
22812;SDS011;11573;51.334;3.244;2022-11-25T16:06:23;28.00;;;3.80;;
22812;SDS011;11573;51.334;3.244;2022-11-25T16:11:23;24.02;;;3.90;;
22812;SDS011;11573;51.334;3.244;2022-11-25T16:13:51;26.55;;;3.50;;
22812;SDS011;11573;51.334;3.244;2022-11-25T16:26:34;31.02;;;4.47;;
22812;SDS011;11573;51.334;3.244;2022-11-25T16:29:13;20.95;;;4.05;;
22812;SDS011;11573;51.334;3.244;2022-11-25T16:31:42;18.00;;;3.88;;
22812;SDS011;11573;51.334;3.244;2022-11-25T16:34:13;15.63;;;3.47;;
22812;SDS011;11573;51.334;3.244;2022-11-25T16:36:42;21.13;;;3.78;;
22812;SDS011;11573;51.334;3.244;2022-11-25T16:39:09;23.10;;;3.72;;
22812;SDS011;11573;51.334;3.244;2022-11-25T16:41:37;15.43;;;4.03;;
22812;SDS011;11573;51.334;3.244;2022-11-25T16:44:18;27.40;;;4.32;;
22812;SDS011;11573;51.334;3.244;2022-11-25T16:46:47;20.88;;;3.70;;
22812;SDS011;11573;51.334;3.244;2022-11-25T16:49:16;23.60;;;4.10;;
22812;SDS011;11573;51.334;3.244;2022-11-25T16:51:44;22.20;;;3.70;;
22812;SDS011;11573;51.334;3.244;2022-11-25T16:54:11;16.73;;;3.83;;
22812;SDS011;11573;51.334;3.244;2022-11-25T16:56:39;18.00;;;3.72;;
22812;SDS011;11573;51.334;3.244;2022-11-25T16:59:10;24.35;;;4.07;;
22812;SDS011;11573;51.334;3.244;2022-11-25T17:01:42;18.05;;;3.25;;
22812;SDS011;11573;51.334;3.244;2022-11-25T17:04:10;19.20;;;3.42;;
22812;SDS011;11573;51.334;3.244;2022-11-25T17:06:38;16.92;;;3.90;;
22812;SDS011;11573;51.334;3.244;2022-11-25T17:09:06;24.80;;;4.65;;
22812;SDS011;11573;51.334;3.244;2022-11-25T17:11:35;26.73;;;3.55;;
22812;SDS011;11573;51.334;3.244;2022-11-25T17:14:22;14.82;;;3.53;;
22812;SDS011;11573;51.334;3.244;2022-11-25T17:16:53;22.38;;;3.33;;
22812;SDS011;11573;51.334;3.244;2022-11-25T17:19:20;13.95;;;3.58;;
22812;SDS011;11573;51.334;3.244;2022-11-25T17:21:47;21.17;;;3.38;;
22812;SDS011;11573;51.334;3.244;2022-11-25T17:24:18;15.75;;;3.38;;
22812;SDS011;11573;51.334;3.244;2022-11-25T17:26:48;22.27;;;3.22;;
22812;SDS011;11573;51.334;3.244;2022-11-25T17:29:23;18.35;;;3.55;;
22812;SDS011;11573;51.334;3.244;2022-11-25T17:32:05;17.30;;;3.55;;
22812;SDS011;11573;51.334;3.244;2022-11-25T17:34:36;16.90;;;4.07;;
22812;SDS011;11573;51.334;3.244;2022-11-25T17:37:12;23.85;;;4.47;;
22812;SDS011;11573;51.334;3.244;2022-11-25T17:39:40;25.85;;;3.75;;
22812;SDS011;11573;51.334;3.244;2022-11-25T17:42:15;17.05;;;3.70;;
22812;SDS011;11573;51.334;3.244;2022-11-25T17:44:44;18.65;;;4.18;;
22812;SDS011;11573;51.334;3.244;2022-11-25T17:47:16;13.95;;;3.20;;
22812;SDS011;11573;51.334;3.244;2022-11-25T17:49:43;23.50;;;4.75;;
22812;SDS011;11573;51.334;3.244;2022-11-25T17:52:14;25.63;;;4.72;;
22812;SDS011;11573;51.334;3.244;2022-11-25T17:54:41;18.92;;;3.50;;
22812;SDS011;11573;51.334;3.244;2022-11-25T17:57:10;19.55;;;4.22;;
22812;SDS011;11573;51.334;3.244;2022-11-25T17:59:41;23.42;;;4.53;;
22812;SDS011;11573;51.334;3.244;2022-11-25T18:02:16;22.15;;;4.55;;
22812;SDS011;11573;51.334;3.244;2022-11-25T18:04:44;24.65;;;4.95;;
22812;SDS011;11573;51.334;3.244;2022-11-25T18:07:12;20.15;;;4.40;;
22812;SDS011;11573;51.334;3.244;2022-11-25T18:09:39;20.70;;;3.90;;
22812;SDS011;11573;51.334;3.244;2022-11-25T18:12:18;27.83;;;4.57;;
22812;SDS011;11573;51.334;3.244;2022-11-25T18:14:56;19.20;;;4.47;;
22812;SDS011;11573;51.334;3.244;2022-11-25T18:17:23;17.40;;;4.53;;
22812;SDS011;11573;51.334;3.244;2022-11-25T18:19:50;19.85;;;4.82;;
22812;SDS011;11573;51.334;3.244;2022-11-25T18:22:21;29.08;;;5.35;;
22812;SDS011;11573;51.334;3.244;2022-11-25T18:24:49;24.48;;;5.25;;
22812;SDS011;11573;51.334;3.244;2022-11-25T18:27:19;22.60;;;5.40;;
22812;SDS011;11573;51.334;3.244;2022-11-25T18:29:46;20.92;;;4.60;;
22812;SDS011;11573;51.334;3.244;2022-11-25T18:32:14;24.83;;;4.57;;
22812;SDS011;11573;51.334;3.244;2022-11-25T18:34:41;21.98;;;4.85;;
22812;SDS011;11573;51.334;3.244;2022-11-25T18:37:09;23.63;;;5.00;;
22812;SDS011;11573;51.334;3.244;2022-11-25T18:39:37;19.67;;;4.88;;
22812;SDS011;11573;51.334;3.244;2022-11-25T18:42:06;20.40;;;5.35;;
22812;SDS011;11573;51.334;3.244;2022-11-25T18:44:39;24.02;;;5.82;;
22812;SDS011;11573;51.334;3.244;2022-11-25T18:47:10;25.00;;;5.75;;
22812;SDS011;11573;51.334;3.244;2022-11-25T18:49:37;20.02;;;5.38;;
22812;SDS011;11573;51.334;3.244;2022-11-25T18:52:05;23.02;;;5.78;;
22812;SDS011;11573;51.334;3.244;2022-11-25T18:54:32;21.17;;;6.65;;
22812;SDS011;11573;51.334;3.244;2022-11-25T18:56:59;23.30;;;6.47;;
22812;SDS011;11573;51.334;3.244;2022-11-25T18:59:32;29.50;;;6.78;;
22812;SDS011;11573;51.334;3.244;2022-11-25T19:02:01;23.88;;;6.05;;
22812;SDS011;11573;51.334;3.244;2022-11-25T19:04:28;21.40;;;5.93;;